createdAt,value
2023-05-06T00:02:21.884Z,6.18
2023-05-06T00:04:49.607Z,7.83
2023-05-06T00:07:18.630Z,4.53
2023-05-06T00:09:46.375Z,7.10
2023-05-06T00:12:13.964Z,3.67
2023-05-06T00:14:41.752Z,6.25
2023-05-06T00:17:10.611Z,6.45
2023-05-06T00:19:38.965Z,8.15
2023-05-06T00:22:06.660Z,4.90
2023-05-06T00:24:35.974Z,5.32
2023-05-06T00:27:03.856Z,4.70
2023-05-06T00:29:31.526Z,5.30
2023-05-06T00:31:59.572Z,7.95
2023-05-06T00:34:27.450Z,5.07
2023-05-06T00:36:55.142Z,6.78
2023-05-06T00:39:22.809Z,5.65
2023-05-06T00:41:52.694Z,5.90
2023-05-06T00:44:20.343Z,4.65
2023-05-06T00:46:48.151Z,7.37
2023-05-06T00:49:16.069Z,6.95
2023-05-06T00:51:43.828Z,8.48
2023-05-06T00:54:12.027Z,6.32
2023-05-06T00:56:40.237Z,6.47
2023-05-06T00:59:09.282Z,6.78
2023-05-06T01:01:37.658Z,7.03
2023-05-06T01:04:07.976Z,5.97
2023-05-06T01:06:43.376Z,7.17
2023-05-06T01:09:20.494Z,6.53
2023-05-06T01:11:52.088Z,5.85
2023-05-06T01:14:30.157Z,7.25
2023-05-06T01:17:04.455Z,6.18
2023-05-06T01:19:41.900Z,5.10
2023-05-06T01:22:11.679Z,6.72
2023-05-06T01:24:41.949Z,5.83
2023-05-06T01:27:10.853Z,7.13
2023-05-06T01:29:40.482Z,9.23
2023-05-06T01:32:37.329Z,7.18
2023-05-06T01:35:16.549Z,9.77
2023-05-06T01:37:48.967Z,9.20
2023-05-06T01:40:18.941Z,5.80
2023-05-06T01:42:49.233Z,7.45
2023-05-06T01:45:19.400Z,6.80
2023-05-06T01:47:48.068Z,6.57
2023-05-06T01:50:16.568Z,6.65
2023-05-06T01:52:44.241Z,8.38
2023-05-06T01:55:12.129Z,8.45
2023-05-06T01:57:41.165Z,7.85
2023-05-06T02:00:10.206Z,7.93
2023-05-06T02:02:38.064Z,6.80
2023-05-06T02:05:06.737Z,7.37
2023-05-06T02:07:34.599Z,8.60
2023-05-06T02:10:02.340Z,7.88
2023-05-06T02:12:30.066Z,8.87
2023-05-06T02:14:59.500Z,10.80
2023-05-06T02:17:27.335Z,8.57
2023-05-06T02:19:55.115Z,10.70
2023-05-06T02:22:22.794Z,9.52
2023-05-06T02:24:50.480Z,11.18
2023-05-06T02:27:18.172Z,9.95
2023-05-06T02:29:46.098Z,11.30
2023-05-06T02:32:15.095Z,11.93
2023-05-06T02:34:42.826Z,11.02
2023-05-06T02:37:10.841Z,13.93
2023-05-06T02:39:38.549Z,9.70
2023-05-06T02:42:07.120Z,11.00
2023-05-06T02:44:34.808Z,12.90
2023-05-06T02:47:02.422Z,11.97
2023-05-06T02:49:31.405Z,12.65
2023-05-06T02:51:59.161Z,12.00
2023-05-06T02:54:27.615Z,10.88
2023-05-06T02:56:55.371Z,11.20
2023-05-06T02:59:23.183Z,11.90
2023-05-06T03:01:50.874Z,10.93
2023-05-06T03:04:18.520Z,11.48
2023-05-06T03:06:47.563Z,11.33
2023-05-06T03:09:15.845Z,11.45
2023-05-06T03:11:43.746Z,10.83
2023-05-06T03:14:11.403Z,13.68
2023-05-06T03:16:39.376Z,10.07
2023-05-06T03:19:07.141Z,11.27
2023-05-06T03:21:34.865Z,12.63
2023-05-06T03:24:04.278Z,12.95
2023-05-06T03:26:31.995Z,12.05
2023-05-06T03:28:59.650Z,13.43
2023-05-06T03:31:27.409Z,10.87
2023-05-06T03:33:55.147Z,13.02
2023-05-06T03:36:23.845Z,11.40
2023-05-06T03:38:51.428Z,12.30
2023-05-06T03:41:21.499Z,13.75
2023-05-06T03:43:49.152Z,12.90
2023-05-06T03:46:16.987Z,11.20
2023-05-06T03:48:44.649Z,12.52
2023-05-06T03:51:12.472Z,13.75
2023-05-06T03:53:40.219Z,12.80
2023-05-06T03:56:08.660Z,14.88
2023-05-06T03:58:37.814Z,14.17
2023-05-06T04:01:05.881Z,14.85
2023-05-06T04:03:33.873Z,14.73
2023-05-06T04:06:01.724Z,12.93
2023-05-06T04:08:29.347Z,13.60
2023-05-06T04:10:57.054Z,13.73
2023-05-06T04:13:24.800Z,13.03
2023-05-06T04:15:54.199Z,14.85
2023-05-06T04:18:22.253Z,13.27
2023-05-06T04:20:50.270Z,13.38
2023-05-06T04:23:18.203Z,12.55
2023-05-06T04:25:48.613Z,12.93
2023-05-06T04:28:17.613Z,13.40
2023-05-06T04:30:45.474Z,10.60
2023-05-06T04:33:14.685Z,12.02
2023-05-06T04:35:42.743Z,11.40
2023-05-06T04:38:10.400Z,12.85
2023-05-06T04:40:40.631Z,11.90
2023-05-06T04:43:08.277Z,11.15
2023-05-06T04:45:37.776Z,11.77
2023-05-06T04:48:06.242Z,13.40
2023-05-06T04:50:35.329Z,11.10
2023-05-06T04:53:03.102Z,11.85
2023-05-06T04:55:30.838Z,12.10
2023-05-06T04:57:58.599Z,11.23
2023-05-06T05:00:27.511Z,11.35
2023-05-06T05:02:55.264Z,9.60
2023-05-06T05:05:23.045Z,10.82
2023-05-06T05:07:52.212Z,9.30
2023-05-06T05:10:20.164Z,10.75
2023-05-06T05:12:47.872Z,10.38
2023-05-06T05:15:15.659Z,10.68
2023-05-06T05:17:43.368Z,9.30
2023-05-06T05:20:11.917Z,9.18
2023-05-06T05:22:39.789Z,8.80
2023-05-06T05:25:09.857Z,9.52
2023-05-06T05:27:37.906Z,8.88
2023-05-06T05:30:07.357Z,9.57
2023-05-06T05:32:35.054Z,10.85
2023-05-06T05:35:02.722Z,10.32
2023-05-06T05:37:31.244Z,10.05
2023-05-06T05:39:58.974Z,9.60
2023-05-06T05:42:28.081Z,10.07
2023-05-06T05:44:55.766Z,9.88
2023-05-06T05:47:49.177Z,10.57
2023-05-06T05:50:16.937Z,10.10
2023-05-06T05:52:44.614Z,10.10
2023-05-06T05:55:12.453Z,9.60
2023-05-06T05:57:41.436Z,9.05
2023-05-06T06:00:12.829Z,9.00
2023-05-06T06:02:41.424Z,9.87
2023-05-06T06:05:09.810Z,10.13
2023-05-06T06:07:37.726Z,10.73
2023-05-06T06:10:06.318Z,8.80
2023-05-06T06:12:34.091Z,9.40
2023-05-06T06:15:03.271Z,9.88
2023-05-06T06:17:31.092Z,10.10
2023-05-06T06:19:59.219Z,9.35
2023-05-06T06:22:27.209Z,9.95
2023-05-06T06:24:54.931Z,11.18
2023-05-06T06:27:22.519Z,9.57
2023-05-06T06:29:50.390Z,8.90
2023-05-06T06:32:19.517Z,10.40
2023-05-06T06:34:47.250Z,10.75
2023-05-06T06:37:14.868Z,10.60
2023-05-06T06:39:42.466Z,10.38
2023-05-06T06:42:10.149Z,9.55
2023-05-06T06:44:37.996Z,10.02
2023-05-06T06:47:05.708Z,9.57
2023-05-06T06:49:37.258Z,9.85
2023-05-06T06:52:05.995Z,10.20
2023-05-06T06:54:33.728Z,9.98
2023-05-06T06:57:01.552Z,9.75
2023-05-06T06:59:29.271Z,11.40
2023-05-06T07:01:56.960Z,11.88
2023-05-06T07:04:25.685Z,8.83
2023-05-06T07:06:54.812Z,9.50
2023-05-06T07:09:22.577Z,9.32
2023-05-06T07:11:50.266Z,7.93
2023-05-06T07:14:18.017Z,9.77
2023-05-06T07:16:47.165Z,8.52
2023-05-06T07:19:15.864Z,7.77
2023-05-06T07:21:43.511Z,6.45
2023-05-06T07:24:12.881Z,6.87
2023-05-06T07:26:40.672Z,7.27
2023-05-06T07:29:08.391Z,7.95
2023-05-06T07:31:36.589Z,7.28
2023-05-06T07:34:04.375Z,5.82
2023-05-06T07:36:36.124Z,6.90
2023-05-06T07:39:05.083Z,6.55
2023-05-06T07:41:34.140Z,6.15
2023-05-06T07:44:02.109Z,5.35
2023-05-06T07:46:30.002Z,7.15
2023-05-06T07:48:57.763Z,5.78
2023-05-06T07:51:25.548Z,5.00
2023-05-06T07:53:53.160Z,5.00
2023-05-06T07:56:20.882Z,4.63
2023-05-06T07:58:50.222Z,4.57
2023-05-06T08:01:17.931Z,5.00
2023-05-06T08:03:45.705Z,5.25
2023-05-06T08:06:13.555Z,5.30
2023-05-06T08:08:41.258Z,6.75
2023-05-06T08:11:09.016Z,6.10
2023-05-06T08:13:36.651Z,4.32
2023-05-06T08:16:06.853Z,5.13
2023-05-06T08:18:34.771Z,4.88
2023-05-06T08:21:02.643Z,5.18
2023-05-06T08:23:30.431Z,4.82
2023-05-06T08:25:59.042Z,4.40
2023-05-06T08:28:26.846Z,5.60
2023-05-06T08:30:54.535Z,5.72
2023-05-06T08:33:23.691Z,5.95
2023-05-06T08:35:51.423Z,4.20
2023-05-06T08:38:19.096Z,3.97
2023-05-06T08:40:46.763Z,8.40
2023-05-06T08:43:15.468Z,6.43
2023-05-06T08:45:43.392Z,6.05
2023-05-06T08:48:11.305Z,5.72
2023-05-06T08:50:43.158Z,6.38
2023-05-06T08:53:12.603Z,6.47
2023-05-06T08:55:41.980Z,5.90
2023-05-06T08:58:12.069Z,7.45
2023-05-06T09:00:40.360Z,6.63
2023-05-06T09:03:08.098Z,6.43
2023-05-06T09:05:35.858Z,7.22
2023-05-06T09:08:05.142Z,5.77
2023-05-06T09:10:33.661Z,7.43
2023-05-06T09:13:01.340Z,4.88
2023-05-06T09:15:40.344Z,4.97
2023-05-06T09:18:08.258Z,6.18
2023-05-06T09:20:36.196Z,4.60
2023-05-06T09:23:05.754Z,3.75
2023-05-06T09:25:33.960Z,6.13
2023-05-06T09:28:05.996Z,3.90
2023-05-06T09:30:33.951Z,4.20
2023-05-06T09:33:04.940Z,7.20
2023-05-06T09:35:38.322Z,4.32
2023-05-06T09:38:08.301Z,4.88
2023-05-06T09:40:36.671Z,4.93
2023-05-06T09:43:04.671Z,4.75
2023-05-06T09:45:32.997Z,5.53
2023-05-06T09:48:02.103Z,4.80
2023-05-06T09:50:29.840Z,3.90
2023-05-06T09:52:57.719Z,4.45
2023-05-06T09:55:28.167Z,3.80
2023-05-06T09:57:56.255Z,4.15
2023-05-06T10:00:28.256Z,3.13
2023-05-06T10:02:56.927Z,3.65
2023-05-06T10:05:26.090Z,3.60
2023-05-06T10:07:56.164Z,3.92
2023-05-06T10:10:28.040Z,4.78
2023-05-06T10:12:56.683Z,4.13
2023-05-06T10:15:27.373Z,4.50
2023-05-06T10:17:56.440Z,4.45
2023-05-06T10:20:25.429Z,5.38
2023-05-06T10:23:02.341Z,3.67
2023-05-06T10:25:39.615Z,4.03
2023-05-06T10:28:11.154Z,4.20
2023-05-06T10:30:48.506Z,3.47
2023-05-06T10:33:17.082Z,4.90
2023-05-06T10:35:54.275Z,3.97
2023-05-06T10:38:25.960Z,4.03
2023-05-06T10:40:56.105Z,2.95
2023-05-06T10:43:25.674Z,3.25
2023-05-06T10:46:01.440Z,3.67
2023-05-06T10:48:29.353Z,3.33
2023-05-06T10:51:31.544Z,3.28
2023-05-06T10:54:02.312Z,2.17
2023-05-06T10:56:33.164Z,3.60
2023-05-06T10:59:08.080Z,2.95
2023-05-06T11:01:36.434Z,2.75
2023-05-06T11:04:09.500Z,3.53
2023-05-06T11:06:41.089Z,3.20
2023-05-06T11:09:17.283Z,4.20
2023-05-06T11:11:54.722Z,4.35
2023-05-06T11:14:30.154Z,2.67
2023-05-06T11:16:59.181Z,3.88
2023-05-06T11:19:28.556Z,3.80
2023-05-06T11:21:58.201Z,5.25
2023-05-06T11:24:28.541Z,6.28
2023-05-06T11:26:58.792Z,4.72
2023-05-06T11:29:27.732Z,11.75
2023-05-06T11:31:55.452Z,3.63
2023-05-06T11:34:25.925Z,2.97
2023-05-06T11:36:58.593Z,2.83
2023-05-06T11:39:30.306Z,2.67
2023-05-06T11:42:03.859Z,3.13
2023-05-06T11:44:33.398Z,2.92
2023-05-06T11:47:03.073Z,3.22
2023-05-06T11:49:31.490Z,4.45
2023-05-06T11:51:59.173Z,3.92
2023-05-06T11:54:28.153Z,4.32
2023-05-06T11:56:57.280Z,3.97
2023-05-06T11:59:31.544Z,3.17
2023-05-06T12:02:01.155Z,3.05
2023-05-06T12:04:29.107Z,3.80
2023-05-06T12:06:57.411Z,2.80
2023-05-06T12:09:25.969Z,3.75
2023-05-06T12:11:54.957Z,3.13
2023-05-06T12:14:23.012Z,3.78
2023-05-06T12:16:54.097Z,2.60
2023-05-06T12:19:23.803Z,4.30
2023-05-06T12:21:51.440Z,2.00
2023-05-06T12:24:28.086Z,2.55
2023-05-06T12:26:56.110Z,3.38
2023-05-06T12:29:23.849Z,3.08
2023-05-06T12:32:08.928Z,2.50
2023-05-06T12:34:40.467Z,1.70
2023-05-06T12:37:09.371Z,1.83
2023-05-06T12:39:38.620Z,3.50
2023-05-06T12:42:07.292Z,3.90
2023-05-06T12:44:37.394Z,1.90
2023-05-06T12:47:08.428Z,3.92
2023-05-06T12:49:49.952Z,2.22
2023-05-06T12:52:18.541Z,1.73
2023-05-06T12:54:46.853Z,2.60
2023-05-06T12:57:15.251Z,2.25
2023-05-06T12:59:44.536Z,2.20
2023-05-06T13:02:14.335Z,3.70
2023-05-06T13:04:42.532Z,1.85
2023-05-06T13:07:10.249Z,1.98
2023-05-06T13:09:37.916Z,2.63
2023-05-06T13:12:06.283Z,3.13
2023-05-06T13:14:34.070Z,2.53
2023-05-06T13:17:04.655Z,1.70
2023-05-06T13:19:33.983Z,2.38
2023-05-06T13:22:02.167Z,2.13
2023-05-06T13:24:29.905Z,3.10
2023-05-06T13:26:59.381Z,3.10
2023-05-06T13:29:27.642Z,2.85
2023-05-06T13:31:56.434Z,2.22
2023-05-06T13:34:24.192Z,3.33
2023-05-06T13:36:54.842Z,2.80
2023-05-06T13:39:22.659Z,3.78
2023-05-06T13:41:51.081Z,1.92
2023-05-06T13:44:19.080Z,1.60
2023-05-06T13:46:47.201Z,1.90
2023-05-06T13:49:15.978Z,2.25
2023-05-06T13:51:43.893Z,1.70
2023-05-06T13:54:13.007Z,1.77
2023-05-06T13:56:40.969Z,2.65
2023-05-06T13:59:10.004Z,3.70
2023-05-06T14:01:38.246Z,2.90
2023-05-06T14:04:06.349Z,4.28
2023-05-06T14:06:34.031Z,1.80
2023-05-06T14:09:01.761Z,2.92
2023-05-06T14:11:30.987Z,4.28
2023-05-06T14:13:58.721Z,2.33
2023-05-06T14:16:26.377Z,3.07
2023-05-06T14:18:54.178Z,2.03
2023-05-06T14:21:22.245Z,1.35
2023-05-06T14:23:49.872Z,2.35
2023-05-06T14:26:17.533Z,2.08
2023-05-06T14:28:46.551Z,3.43
2023-05-06T14:31:14.278Z,2.22
2023-05-06T14:33:42.317Z,1.30
2023-05-06T14:36:10.490Z,1.70
2023-05-06T14:38:38.434Z,2.70
2023-05-06T14:41:06.522Z,2.70
2023-05-06T14:43:34.564Z,1.70
2023-05-06T14:46:03.671Z,1.88
2023-05-06T14:48:31.946Z,2.85
2023-05-06T14:51:00.818Z,2.17
2023-05-06T14:53:28.490Z,2.90
2023-05-06T14:55:56.381Z,2.13
2023-05-06T14:58:24.437Z,6.13
2023-05-06T15:00:52.356Z,7.63
2023-05-06T15:03:21.684Z,5.40
2023-05-06T15:05:50.717Z,3.30
2023-05-06T15:08:18.502Z,3.73
2023-05-06T15:10:46.167Z,2.80
2023-05-06T15:13:13.868Z,3.65
2023-05-06T15:15:41.675Z,3.20
2023-05-06T15:18:09.545Z,2.33
2023-05-06T15:20:38.847Z,2.83
2023-05-06T15:23:06.559Z,3.13
2023-05-06T15:25:36.087Z,2.67
2023-05-06T15:28:05.558Z,4.18
2023-05-06T15:30:33.392Z,2.67
2023-05-06T15:33:02.697Z,1.95
2023-05-06T15:35:31.628Z,2.70
2023-05-06T15:38:00.680Z,3.08
2023-05-06T15:40:28.467Z,2.20
2023-05-06T15:42:56.784Z,2.22
2023-05-06T15:45:24.630Z,2.25
2023-05-06T15:47:52.706Z,4.55
2023-05-06T15:50:32.756Z,3.20
2023-05-06T15:53:03.130Z,3.08
2023-05-06T15:55:35.116Z,2.88
2023-05-06T15:58:09.053Z,3.42
2023-05-06T16:00:36.676Z,1.90
2023-05-06T16:03:04.439Z,2.50
2023-05-06T16:05:32.785Z,2.22
2023-05-06T16:08:01.924Z,2.63
2023-05-06T16:10:29.549Z,2.58
2023-05-06T16:12:57.336Z,2.60
2023-05-06T16:15:25.091Z,2.40
2023-05-06T16:17:53.111Z,1.70
2023-05-06T16:20:20.893Z,2.75
2023-05-06T16:22:50.942Z,2.20
2023-05-06T16:25:20.124Z,1.98
2023-05-06T16:27:47.892Z,2.08
2023-05-06T16:30:15.940Z,2.42
2023-05-06T16:32:43.830Z,4.18
2023-05-06T16:35:11.676Z,1.58
2023-05-06T16:37:39.389Z,3.33
2023-05-06T16:40:09.556Z,3.35
2023-05-06T16:42:39.285Z,3.40
2023-05-06T16:45:08.456Z,2.87
2023-05-06T16:47:36.491Z,4.10
2023-05-06T16:50:06.552Z,2.47
2023-05-06T16:52:34.288Z,2.55
2023-05-06T16:55:01.970Z,2.80
2023-05-06T16:57:29.868Z,1.85
2023-05-06T16:59:59.162Z,4.05
2023-05-06T17:02:27.022Z,4.18
2023-05-06T17:04:54.916Z,7.47
2023-05-06T17:07:22.554Z,3.78
2023-05-06T17:09:50.389Z,4.50
2023-05-06T17:12:18.015Z,3.40
2023-05-06T17:14:45.718Z,2.60
2023-05-06T17:17:14.763Z,4.85
2023-05-06T17:19:42.513Z,3.05
2023-05-06T17:22:10.946Z,3.63
2023-05-06T17:24:38.642Z,2.17
2023-05-06T17:27:06.349Z,2.47
2023-05-06T17:29:34.038Z,4.65
2023-05-06T17:32:01.805Z,3.22
2023-05-06T17:34:31.871Z,2.95
2023-05-06T17:37:01.112Z,2.95
2023-05-06T17:39:30.851Z,3.40
2023-05-06T17:41:58.478Z,2.58
2023-05-06T17:44:26.455Z,3.70
2023-05-06T17:46:54.477Z,3.58
2023-05-06T17:49:22.271Z,5.43
2023-05-06T17:51:51.312Z,3.92
2023-05-06T17:54:19.087Z,3.47
2023-05-06T17:56:50.381Z,6.00
2023-05-06T17:59:19.766Z,2.90
2023-05-06T18:01:48.192Z,2.70
2023-05-06T18:04:16.315Z,4.70
2023-05-06T18:06:45.250Z,2.65
2023-05-06T18:09:14.873Z,2.60
2023-05-06T18:11:42.539Z,3.33
2023-05-06T18:14:10.228Z,5.50
2023-05-06T18:16:38.466Z,2.85
2023-05-06T18:19:06.190Z,13.07
2023-05-06T18:21:36.000Z,3.47
2023-05-06T18:24:15.319Z,29.00
2023-05-06T18:26:46.326Z,37.35
2023-05-06T18:29:14.326Z,14.18
2023-05-06T18:31:42.424Z,25.20
2023-05-06T18:34:10.573Z,6.97
2023-05-06T18:36:38.387Z,4.18
2023-05-06T18:39:06.152Z,9.38
2023-05-06T18:41:34.111Z,5.97
2023-05-06T18:44:05.081Z,4.45
2023-05-06T18:46:33.753Z,3.22
2023-05-06T18:49:01.914Z,3.63
2023-05-06T18:51:30.005Z,4.25
2023-05-06T18:53:58.048Z,3.83
2023-05-06T18:56:26.056Z,3.30
2023-05-06T18:58:54.060Z,3.08
2023-05-06T19:01:23.287Z,4.13
2023-05-06T19:03:51.828Z,5.00
2023-05-06T19:06:19.948Z,3.47
2023-05-06T19:08:47.681Z,3.80
2023-05-06T19:11:16.687Z,4.25
2023-05-06T19:13:45.018Z,5.00
2023-05-06T19:16:13.101Z,4.22
2023-05-06T19:18:42.406Z,4.55
2023-05-06T19:21:11.114Z,4.00
2023-05-06T19:23:39.110Z,3.90
2023-05-06T19:26:07.146Z,3.33
2023-05-06T19:28:35.331Z,4.20
2023-05-06T19:31:09.436Z,4.32
2023-05-06T19:33:37.558Z,4.00
2023-05-06T19:36:08.106Z,5.65
2023-05-06T19:38:36.146Z,6.35
2023-05-06T19:41:04.369Z,2.92
2023-05-06T19:43:32.334Z,4.32
2023-05-06T19:46:00.190Z,5.57
2023-05-06T19:48:28.012Z,3.15
2023-05-06T19:50:55.755Z,4.40
2023-05-06T19:53:25.563Z,5.23
2023-05-06T19:55:55.991Z,7.38
2023-05-06T19:58:24.246Z,3.70
2023-05-06T20:00:52.120Z,4.90
2023-05-06T20:03:20.166Z,3.75
2023-05-06T20:05:47.952Z,3.63
2023-05-06T20:08:15.734Z,5.18
2023-05-06T20:10:44.854Z,3.70
2023-05-06T20:13:12.820Z,4.25
2023-05-06T20:15:41.541Z,5.93
2023-05-06T20:18:09.518Z,4.00
2023-05-06T20:20:37.859Z,4.27
2023-05-06T20:23:05.984Z,7.55
2023-05-06T20:25:36.323Z,4.03
2023-05-06T20:28:08.766Z,4.15
2023-05-06T20:30:37.726Z,5.47
2023-05-06T20:33:05.645Z,3.95
2023-05-06T20:35:38.137Z,6.15
2023-05-06T20:38:06.667Z,5.20
2023-05-06T20:40:35.743Z,3.13
2023-05-06T20:43:07.637Z,5.57
2023-05-06T20:45:38.532Z,4.82
2023-05-06T20:48:07.188Z,5.32
2023-05-06T20:50:35.166Z,6.35
2023-05-06T20:53:03.048Z,4.65
2023-05-06T20:55:31.028Z,5.97
2023-05-06T20:57:58.962Z,4.63
2023-05-06T21:00:28.989Z,5.50
2023-05-06T21:02:57.474Z,4.70
2023-05-06T21:05:26.082Z,5.63
2023-05-06T21:07:53.899Z,6.05
2023-05-06T21:10:21.722Z,6.07
2023-05-06T21:12:51.136Z,4.50
2023-05-06T21:15:19.991Z,5.63
2023-05-06T21:17:50.178Z,7.35
2023-05-06T21:20:19.386Z,3.83
2023-05-06T21:22:47.124Z,5.50
2023-05-06T21:25:14.877Z,4.28
2023-05-06T21:27:42.735Z,5.22
2023-05-06T21:30:11.221Z,5.65
2023-05-06T21:32:39.125Z,6.05
2023-05-06T21:35:09.513Z,4.00
2023-05-06T21:37:37.386Z,4.90
2023-05-06T21:40:06.120Z,4.80
2023-05-06T21:42:34.053Z,5.23
2023-05-06T21:45:01.888Z,3.00
2023-05-06T21:47:29.722Z,4.63
2023-05-06T21:49:57.663Z,5.82
2023-05-06T21:52:26.897Z,3.47
2023-05-06T21:54:54.750Z,6.60
2023-05-06T21:57:22.469Z,6.38
2023-05-06T21:59:50.399Z,4.60
2023-05-06T22:02:18.123Z,4.45
2023-05-06T22:04:46.301Z,3.90
2023-05-06T22:07:14.116Z,5.27
2023-05-06T22:09:43.433Z,3.80
2023-05-06T22:12:12.644Z,6.28
2023-05-06T22:14:41.461Z,4.40
2023-05-06T22:17:10.589Z,4.20
2023-05-06T22:19:38.597Z,4.53
2023-05-06T22:22:06.943Z,5.37
2023-05-06T22:24:34.910Z,4.13
2023-05-06T22:27:04.271Z,4.05
2023-05-06T22:29:34.821Z,4.63
2023-05-06T22:32:02.658Z,4.47
2023-05-06T22:34:30.389Z,5.25
2023-05-06T22:37:00.455Z,4.97
2023-05-06T22:39:28.823Z,5.10
2023-05-06T22:41:57.156Z,4.43
2023-05-06T22:44:26.173Z,3.95
2023-05-06T22:46:54.851Z,2.83
2023-05-06T22:49:23.395Z,3.92
2023-05-06T22:51:51.158Z,4.43
2023-05-06T22:54:19.329Z,3.60
2023-05-06T22:56:47.080Z,3.92
2023-05-06T22:59:14.772Z,4.60
2023-05-06T23:01:43.882Z,5.78
2023-05-06T23:04:11.914Z,5.35
2023-05-06T23:06:40.226Z,4.90
2023-05-06T23:09:07.963Z,6.47
2023-05-06T23:11:35.765Z,6.18
2023-05-06T23:14:04.049Z,3.60
2023-05-06T23:16:31.791Z,7.00
2023-05-06T23:19:00.818Z,3.55
2023-05-06T23:21:28.514Z,3.90
2023-05-06T23:23:56.576Z,4.70
2023-05-06T23:26:24.577Z,5.65
2023-05-06T23:28:52.396Z,3.30
2023-05-06T23:31:20.131Z,4.70
2023-05-06T23:33:47.856Z,4.45
2023-05-06T23:36:17.018Z,6.15
2023-05-06T23:38:44.808Z,6.13
2023-05-06T23:41:13.119Z,5.00
2023-05-06T23:43:40.867Z,4.55
2023-05-06T23:46:08.805Z,4.95
2023-05-06T23:48:38.170Z,4.35
2023-05-06T23:51:06.057Z,3.50
2023-05-06T23:53:36.070Z,5.18
2023-05-06T23:56:04.361Z,4.75
2023-05-06T23:58:32.303Z,5.47
